Data for 03/02/2018

Time Sea-Level Adjusted Pressure Absolute Pressure Temperature Relative Humidity Dew Point   
(mb) (inHg) (mb) (inHg) (C) (F) (%) (C) (F)
00:05 1009 29.8 838 24.75 0.7 33.3 53 -7.8 18
00:10 1009 29.8 838 24.75 0.9 33.7 51 -8.1 17.4
00:15 1009 29.8 838 24.75 1 33.8 52 -7.9 17.8
00:20 1009 29.8 838 24.75 0.7 33.3 53 -7.9 17.9
00:25 1009 29.8 838 24.75 0.6 33.1 53 -7.8 17.9
00:30 1009 29.8 838 24.75 0.8 33.4 53 -7.8 17.9
00:35 1009 29.8 838 24.75 0.6 33.1 54 -7.8 18
00:40 1009 29.8 838 24.75 0.5 32.8 54 -7.7 18.1
00:45 1009 29.8 838 24.75 0.7 33.2 52 -8 17.5
00:50 1009 29.8 838 24.75 0.9 33.6 52 -8 17.6
00:55 1009 29.8 838 24.75 0.8 33.4 52 -8 17.5
01:00 1009 29.8 838 24.75 0.7 33.2 51 -8.3 17.1
01:05 1009 29.8 838 24.75 0.8 33.4 52 -7.9 17.8
01:10 1009 29.8 838 24.75 0.8 33.4 53 -7.7 18.1
01:15 1009 29.8 838 24.75 0.7 33.2 52 -8.1 17.4
01:20 1009 29.8 838 24.75 1.3 34.3 50 -8.1 17.4
01:25 1009 29.8 838 24.75 1.4 34.5 50 -7.8 17.9
01:30 1009 29.8 838 24.75 1.4 34.5 50 -7.8 18
01:35 1009 29.8 838 24.75 1.3 34.3 51 -7.8 17.9
01:40 1008 29.77 838 24.75 1.3 34.3 51 -7.9 17.9
01:45 1008 29.77 837 24.72 1.4 34.6 50 -7.9 17.8
01:50 1008 29.77 837 24.72 1.4 34.5 51 -7.8 18
01:55 1008 29.77 837 24.72 1.3 34.4 51 -7.7 18.2
02:00 1008 29.77 837 24.72 1.3 34.4 51 -7.8 17.9
02:05 1008 29.77 837 24.72 1.3 34.4 51 -7.7 18.1
02:10 1008 29.77 837 24.72 1.2 34.2 51 -7.8 18
02:15 1008 29.77 837 24.72 1.4 34.5 51 -7.8 18
02:20 1008 29.77 837 24.72 1.6 34.9 50 -7.7 18.2
02:25 1008 29.77 837 24.72 1.8 35.2 50 -7.7 18.2
02:30 1008 29.77 837 24.72 2 35.6 49 -7.7 18.2
02:35 1007 29.74 837 24.72 2.3 36.1 49 -7.4 18.6
02:40 1007 29.74 837 24.72 2.5 36.5 47 -7.7 18.1
02:45 1007 29.74 837 24.72 2.7 36.9 46 -7.7 18.2
02:50 1007 29.74 836 24.69 2.7 36.9 47 -7.5 18.4
02:55 1007 29.74 836 24.69 2.7 36.8 47 -7.5 18.4
03:00 1007 29.74 836 24.69 2.7 36.9 47 -7.5 18.4
03:05 1007 29.74 836 24.69 2.8 37 46 -7.7 18.2
03:10 1007 29.74 836 24.69 2.9 37.2 45 -8 17.6
03:15 1007 29.74 836 24.69 3 37.3 45 -7.7 18.1
03:20 1007 29.74 836 24.69 2.9 37.2 45 -7.9 17.8
03:25 1007 29.74 836 24.69 2.9 37.3 46 -7.7 18.2
03:30 1007 29.74 836 24.69 3 37.4 45 -7.8 17.9
03:35 1007 29.74 836 24.69 3.1 37.7 44 -8 17.7
03:40 1007 29.74 836 24.69 3.2 37.8 45 -7.7 18.2
03:45 1007 29.74 836 24.69 3.2 37.7 45 -7.7 18.1
03:50 1007 29.74 836 24.69 3.3 37.9 44 -7.9 17.8
03:55 1007 29.74 836 24.69 3.3 38 43 -7.9 17.7
04:00 1007 29.74 836 24.69 3.3 38 44 -7.8 18
04:05 1007 29.74 836 24.69 3.3 37.9 44 -7.7 18.1
04:10 1007 29.74 836 24.69 3.1 37.6 45 -7.7 18.1
04:15 1007 29.74 836 24.69 3 37.4 46 -7.6 18.3
04:20 1006 29.71 836 24.69 2.7 36.9 47 -7.6 18.3
04:25 1006 29.71 836 24.69 2.4 36.3 48 -7.6 18.4
04:30 1007 29.74 836 24.69 2.2 35.9 48 -7.8 18
04:35 1007 29.74 836 24.69 2.1 35.7 49 -7.7 18.2
04:40 1006 29.71 836 24.69 1.9 35.4 49 -7.7 18.1
04:45 1006 29.71 836 24.69 1.8 35.2 49 -7.7 18.1
04:50 1006 29.71 836 24.69 1.5 34.7 51 -7.7 18.2
04:55 1006 29.71 836 24.69 1.2 34.1 52 -7.7 18.1
05:00 1006 29.71 836 24.69 1 33.7 52 -7.7 18.1
05:05 1006 29.71 835 24.66 1.1 34 52 -7.7 18.2
05:10 1006 29.71 836 24.69 1.1 34 52 -7.6 18.3
05:15 1006 29.71 836 24.69 0.9 33.6 53 -7.5 18.4
05:20 1006 29.71 836 24.69 0.6 33.2 54 -7.6 18.3
05:25 1006 29.71 835 24.66 0.6 33.1 53 -7.8 18
05:30 1006 29.71 835 24.66 0.7 33.3 53 -7.8 18
05:35 1006 29.71 835 24.66 0.8 33.5 52 -7.9 17.8
05:40 1006 29.71 835 24.66 0.9 33.6 52 -8 17.6
05:45 1006 29.71 835 24.66 1.1 34 50 -8.1 17.5
05:50 1006 29.71 835 24.66 1.2 34.1 51 -8 17.6
05:55 1006 29.71 835 24.66 1.4 34.6 50 -7.9 17.8
06:00 1006 29.71 835 24.66 1.3 34.4 51 -7.8 17.9
06:05 1006 29.71 835 24.66 1 33.7 52 -7.9 17.9
06:10 1006 29.71 835 24.66 0.8 33.5 51 -8.1 17.5
06:15 1006 29.71 835 24.66 0.6 33.1 52 -8.1 17.4
06:20 1006 29.71 835 24.66 0.6 33 52 -8.1 17.4
06:25 1006 29.71 835 24.66 0.7 33.2 52 -8.2 17.3
06:30 1006 29.71 835 24.66 0.8 33.5 51 -8.2 17.3
06:35 1006 29.71 835 24.66 0.9 33.6 52 -7.9 17.7
06:40 1006 29.71 835 24.66 0.8 33.4 52 -8 17.7
06:45 1006 29.71 835 24.66 0.8 33.4 52 -8 17.7
06:50 1006 29.71 835 24.66 0.8 33.5 52 -7.9 17.8
06:55 1006 29.71 835 24.66 1.1 34 51 -8 17.6
07:00 1006 29.71 835 24.66 1.4 34.5 51 -7.8 18
07:05 1006 29.71 835 24.66 1.6 34.9 50 -7.7 18.2
07:10 1006 29.71 836 24.69 1.5 34.7 51 -7.7 18.2
07:15 1006 29.71 836 24.69 1.3 34.3 52 -7.5 18.5
07:20 1006 29.71 836 24.69 1.3 34.3 51 -7.8 17.9
07:25 1006 29.71 835 24.66 1.5 34.6 51 -7.5 18.5
07:30 1006 29.71 835 24.66 1.6 34.8 52 -7.3 18.8
07:35 1006 29.71 835 24.66 1.4 34.6 51 -7.5 18.5
07:40 1006 29.71 835 24.66 1.5 34.7 52 -7.2 19
07:45 1006 29.71 835 24.66 1.9 35.4 52 -7 19.5
07:50 1006 29.71 835 24.66 2.1 35.8 51 -6.9 19.5
07:55 1006 29.71 835 24.66 2 35.6 51 -7.1 19.3
08:00 1006 29.71 835 24.66 2.5 36.4 49 -7.2 19.1
08:05 1006 29.71 835 24.66 2.8 37.1 49 -6.8 19.8
08:10 1006 29.71 835 24.66 2.2 36 51 -6.9 19.6
08:15 1006 29.71 835 24.66 2 35.7 51 -7.1 19.2
08:20 1006 29.71 835 24.66 1.9 35.5 50 -7.3 18.9
08:25 1006 29.71 835 24.66 2.1 35.7 51 -7.2 19.1
08:30 1006 29.71 835 24.66 2.3 36.2 50 -7 19.4
08:35 1006 29.71 835 24.66 2.2 36 51 -7 19.4
08:40 1006 29.71 835 24.66 2.2 36 50 -7.1 19.3
08:45 1006 29.71 835 24.66 2.4 36.3 50 -7 19.4
08:50 1007 29.74 836 24.69 2.6 36.7 49 -7.2 19.1
08:55 1007 29.74 836 24.69 2.6 36.6 50 -6.9 19.5
09:00 1007 29.74 836 24.69 2.9 37.2 47 -7.5 18.6
09:05 1007 29.74 836 24.69 2.9 37.2 47 -7.4 18.7
09:10 1007 29.74 836 24.69 3 37.4 47 -7.2 19
09:15 1007 29.74 836 24.69 3.4 38.1 46 -7.3 18.9
09:20 1007 29.74 836 24.69 4 39.1 45 -6.9 19.6
09:25 1007 29.74 836 24.69 3.8 38.9 46 -6.8 19.8
09:30 1006 29.71 836 24.69 3.6 38.5 46 -7 19.3
09:35 1006 29.71 836 24.69 3.8 38.8 45 -7.1 19.1
09:40 1006 29.71 836 24.69 4 39.2 44 -7.2 19
09:45 1006 29.71 835 24.66 4.2 39.5 45 -6.8 19.7
09:50 1006 29.71 835 24.66 4.3 39.7 43 -7.2 19.1
09:55 1006 29.71 836 24.69 4.5 40.1 43 -7.1 19.2
10:00 1006 29.71 836 24.69 4.8 40.6 42 -7.2 19.1
10:05 1006 29.71 836 24.69 4.9 40.8 42 -7 19.5
10:10 1006 29.71 836 24.69 5.3 41.5 41 -6.9 19.7
10:15 1006 29.71 836 24.69 5.8 42.4 38 -7.3 18.8
10:20 1006 29.71 836 24.69 6.3 43.3 37 -7.2 19
10:25 1006 29.71 835 24.66 6.4 43.5 37 -7.1 19.2
10:30 1006 29.71 835 24.66 6.8 44.2 35 -7.6 18.4
10:35 1006 29.71 836 24.69 7.3 45.2 34 -7.7 18.2
10:40 1006 29.71 836 24.69 7.5 45.6 33 -7.7 18.2
10:45 1006 29.71 836 24.69 7.7 45.8 33 -7.8 18
10:50 1006 29.71 835 24.66 7.7 45.8 33 -7.4 18.6
10:55 1006 29.71 835 24.66 7 44.6 36 -7.2 19
11:00 1006 29.71 836 24.69 6.9 44.4 35 -7.6 18.3
11:05 1006 29.71 836 24.69 6.7 44.1 35 -7.6 18.3
11:10 1006 29.71 835 24.66 7 44.6 33 -8.2 17.2
11:15 1006 29.71 835 24.66 7.8 46 33 -7.6 18.3
11:20 1006 29.71 835 24.66 8.2 46.7 32 -7.4 18.8
11:25 1006 29.71 835 24.66 8.2 46.8 34 -6.9 19.6
11:30 1006 29.71 835 24.66 8.4 47 31 -7.8 18
11:35 1006 29.71 835 24.66 8.7 47.7 30 -7.9 17.8
11:40 1006 29.71 835 24.66 8.6 47.5 30 -7.9 17.7
11:45 1006 29.71 835 24.66 9 48.3 29 -7.9 17.9
11:50 1006 29.71 835 24.66 8.7 47.7 33 -6.6 20.1
11:55 1006 29.71 835 24.66 8.4 47.1 33 -7 19.3
12:00 1006 29.71 835 24.66 8.2 46.8 35 -6.5 20.3
12:05 1006 29.71 835 24.66 7.9 46.2 32 -7.7 18.2
12:10 1006 29.71 835 24.66 7.4 45.3 34 -7.5 18.5
12:15 1006 29.71 835 24.66 7.1 44.8 34 -7.6 18.3
12:20 1006 29.71 835 24.66 6.5 43.6 38 -6.9 19.5
12:25 1006 29.71 835 24.66 6.1 43 43 -5.6 22
12:30 1006 29.71 835 24.66 6 42.7 38 -7.1 19.2
12:35 1006 29.71 835 24.66 5.9 42.7 42 -6.1 21
12:40 1006 29.71 835 24.66 5.7 42.2 36 -8.3 17.1
12:45 1006 29.71 836 24.69 5.7 42.3 38 -7.6 18.3
12:50 1006 29.71 836 24.69 5.7 42.2 39 -7.1 19.2
12:55 1007 29.74 836 24.69 5.8 42.4 38 -7.3 18.8
13:00 1007 29.74 836 24.69 6 42.9 37 -7.6 18.3
13:05 1007 29.74 836 24.69 6.1 43 38 -7 19.4
13:10 1007 29.74 836 24.69 6.4 43.6 38 -7 19.4
13:15 1007 29.74 836 24.69 6.6 43.9 37 -6.9 19.6
13:20 1007 29.74 836 24.69 6.5 43.7 38 -6.8 19.8
13:25 1007 29.74 836 24.69 6.6 43.8 38 -6.8 19.7
13:30 1007 29.74 836 24.69 6.6 43.9 38 -6.6 20.2
13:35 1007 29.74 836 24.69 6.4 43.5 40 -6.3 20.7
13:40 1007 29.74 836 24.69 6 42.9 41 -6.4 20.5
13:45 1007 29.74 836 24.69 6 42.8 40 -6.6 20
13:50 1007 29.74 836 24.69 6.2 43.1 42 -5.9 21.3
13:55 1007 29.74 836 24.69 5.9 42.7 43 -5.8 21.5
14:00 1007 29.74 836 24.69 6 42.8 41 -6.3 20.7
14:05 1007 29.74 836 24.69 5.7 42.3 43 -6 21.2
14:10 1007 29.74 836 24.69 5.5 42 42 -6.4 20.5
14:15 1007 29.74 836 24.69 5.9 42.6 38 -7.3 18.9
14:20 1007 29.74 836 24.69 6 42.8 36 -7.9 17.7
14:25 1007 29.74 836 24.69 6 42.9 37 -7.6 18.4
14:30 1007 29.74 836 24.69 6.1 43 35 -8.1 17.4
14:35 1007 29.74 836 24.69 6 42.8 35 -8.2 17.3
14:40 1007 29.74 836 24.69 6 42.9 34 -8.7 16.3
14:45 1007 29.74 836 24.69 6.1 42.9 32 -9.4 15.1
14:50 1007 29.74 836 24.69 6 42.9 31 -9.7 14.5
14:55 1007 29.74 836 24.69 6.1 43 33 -8.9 15.9
15:00 1007 29.74 837 24.72 6 42.9 34 -8.6 16.6
15:05 1008 29.77 837 24.72 5.9 42.5 37 -7.7 18.1
15:10 1008 29.77 837 24.72 5.7 42.2 37 -7.8 18
15:15 1008 29.77 837 24.72 5.3 41.6 43 -6.3 20.6
15:20 1008 29.77 837 24.72 4.5 40.1 46 -6.1 21.1
15:25 1008 29.77 837 24.72 3.7 38.6 50 -5.7 21.8
15:30 1008 29.77 837 24.72 3.1 37.6 49 -6.5 20.4
15:35 1008 29.77 837 24.72 3.3 37.9 46 -7.1 19.2
15:40 1008 29.77 837 24.72 3.8 38.8 45 -7.1 19.2
15:45 1008 29.77 838 24.75 3.9 39.1 40 -8.4 16.8
15:50 1008 29.77 837 24.72 4 39.2 38 -9.2 15.5
15:55 1008 29.77 838 24.75 3.9 38.9 40 -8.4 16.8
16:00 1008 29.77 838 24.75 3.9 39 41 -8.3 17.1
16:05 1008 29.77 837 24.72 3.8 38.9 39 -8.9 16
16:10 1008 29.77 838 24.75 3.8 38.9 38 -9.2 15.5
16:15 1008 29.77 838 24.75 3.8 38.9 34 -10.6 12.9
16:20 1008 29.77 838 24.75 3.9 38.9 35 -10.4 13.3
16:25 1008 29.77 838 24.75 3.8 38.9 32 -11.5 11.3
16:30 1008 29.77 837 24.72 4 39.3 29 -12.3 9.9
16:35 1008 29.77 837 24.72 4.1 39.4 30 -12.1 10.2
16:40 1008 29.77 837 24.72 4.2 39.5 29 -12.5 9.5
16:45 1008 29.77 837 24.72 4.3 39.8 30 -11.7 10.9
16:50 1008 29.77 838 24.75 4.1 39.3 30 -11.9 10.7
16:55 1008 29.77 838 24.75 4 39.2 28 -13 8.7
17:00 1008 29.77 837 24.72 4.2 39.6 26 -13.7 7.3
17:05 1008 29.77 838 24.75 4.3 39.8 24 -14.5 6
17:10 1009 29.8 838 24.75 4.3 39.8 24 -14.5 6
17:15 1009 29.8 838 24.75 4.3 39.8 23 -15.1 4.8
17:20 1009 29.8 838 24.75 4.3 39.7 23 -14.9 5.1
17:25 1009 29.8 838 24.75 4.3 39.7 23 -15.4 4.3
17:30 1009 29.8 838 24.75 4.1 39.4 21 -16.3 2.7
17:35 1009 29.8 839 24.78 4 39.2 23 -15.2 4.7
17:40 1009 29.8 839 24.78 3.8 38.9 23 -15.6 3.9
17:45 1009 29.8 839 24.78 3.9 38.9 23 -15.4 4.3
17:50 1009 29.8 839 24.78 3.8 38.8 24 -15.2 4.7
17:55 1010 29.83 839 24.78 3.7 38.6 25 -14.6 5.7
18:00 1010 29.83 839 24.78 3.4 38.1 26 -14.3 6.3
18:05 1010 29.83 839 24.78 3.2 37.8 28 -13.8 7.2
18:10 1010 29.83 839 24.78 3 37.4 28 -13.8 7.1
18:15 1010 29.83 839 24.78 2.9 37.2 27 -14.4 6.1
18:20 1010 29.83 839 24.78 2.8 37.1 24 -15.7 3.7
18:25 1010 29.83 839 24.78 2.9 37.2 26 -14.8 5.4
18:30 1010 29.83 839 24.78 2.7 36.8 28 -14.2 6.4
18:35 1010 29.83 839 24.78 2.6 36.7 28 -14.1 6.5
18:40 1010 29.83 839 24.78 2.4 36.3 30 -13.4 7.9
18:45 1010 29.83 839 24.78 2.1 35.8 29 -14 6.8
18:50 1010 29.83 840 24.81 2 35.6 31 -13.4 7.8
18:55 1010 29.83 840 24.81 1.9 35.3 31 -13.7 7.3
19:00 1010 29.83 840 24.81 1.8 35.2 32 -13.4 8
19:05 1010 29.83 840 24.81 1.6 34.9 33 -13.2 8.3
19:10 1010 29.83 840 24.81 1.4 34.6 32 -13.4 7.8
19:15 1011 29.85 840 24.81 1.4 34.5 33 -13.2 8.2
19:20 1011 29.85 840 24.81 1.1 34 34 -13.1 8.5
19:25 1011 29.85 840 24.81 1.1 34 33 -13.5 7.6
19:30 1011 29.85 840 24.81 1.1 34 34 -13.2 8.2
19:35 1011 29.85 840 24.81 1 33.8 34 -13.3 8.1
19:40 1011 29.85 840 24.81 0.9 33.6 34 -13.2 8.3
19:45 1011 29.85 840 24.81 0.9 33.6 39 -11.7 11
19:50 1011 29.85 841 24.83 0.6 33.1 42 -10.9 12.3
19:55 1011 29.85 840 24.81 0.4 32.7 42 -11 12.3
20:00 1011 29.85 841 24.83 0.3 32.5 43 -11 12.2
20:05 1012 29.88 841 24.83 0.2 32.3 42 -11.4 11.5
20:10 1012 29.88 841 24.83 0.2 32.3 41 -11.7 10.9
20:15 1012 29.88 841 24.83 0.3 32.5 41 -11.5 11.4
20:20 1012 29.88 841 24.83 0.2 32.4 40 -11.7 10.9
20:25 1012 29.88 841 24.83 0.2 32.3 42 -11.3 11.7
20:30 1012 29.88 841 24.83 -0.1 31.7 44 -11 12.3
20:35 1012 29.88 841 24.83 -0.5 31.1 44 -11.3 11.7
20:40 1012 29.88 841 24.83 -0.7 30.7 46 -11 12.3
20:45 1012 29.88 841 24.83 -0.9 30.5 43 -12 10.4
20:50 1012 29.88 841 24.83 -0.5 31 42 -12 10.4
20:55 1012 29.88 841 24.83 -0.4 31.2 43 -11.7 10.9
21:00 1012 29.88 841 24.83 -0.4 31.4 44 -11.2 11.9
21:05 1012 29.88 841 24.83 -0.7 30.8 48 -10.4 13.3
21:10 1012 29.88 841 24.83 -1.1 30 49 -10.5 13.1
21:15 1012 29.88 841 24.83 -1.2 29.8 51 -10.1 13.8
21:20 1012 29.88 841 24.83 -1.2 29.8 51 -10.1 13.8
21:25 1012 29.88 842 24.86 -1.3 29.6 51 -10.2 13.7
21:30 1013 29.91 842 24.86 -1.2 29.8 50 -10.4 13.3
21:35 1013 29.91 842 24.86 -1.2 29.9 49 -10.6 13
21:40 1013 29.91 842 24.86 -1 30.2 49 -10.4 13.3
21:45 1012 29.88 841 24.83 -0.9 30.4 48 -10.7 12.8
21:50 1012 29.88 841 24.83 -1 30.2 48 -10.7 12.8
21:55 1012 29.88 842 24.86 -0.8 30.5 44 -11.5 11.2
22:00 1013 29.91 842 24.86 -0.6 30.9 44 -11.5 11.2
22:05 1013 29.91 842 24.86 -0.5 31 43 -11.6 11.2
22:10 1013 29.91 842 24.86 -0.5 31 43 -11.6 11.2
22:15 1013 29.91 842 24.86 -0.6 31 44 -11.4 11.4
22:20 1012 29.88 842 24.86 -0.6 30.8 46 -10.9 12.5
22:25 1012 29.88 841 24.83 -0.8 30.6 47 -10.8 12.6
22:30 1012 29.88 841 24.83 -1 30.2 48 -10.8 12.6
22:35 1012 29.88 842 24.86 -1.1 30.1 48 -10.7 12.8
22:40 1012 29.88 841 24.83 -1.2 29.8 48 -10.8 12.6
22:45 1012 29.88 841 24.83 -1.3 29.6 49 -10.8 12.5
22:50 1012 29.88 841 24.83 -1.5 29.2 49 -10.9 12.5
22:55 1012 29.88 841 24.83 -1.5 29.2 49 -11 12.2
23:00 1012 29.88 841 24.83 -1.5 29.2 49 -11 12.1
23:05 1012 29.88 841 24.83 -1.5 29.3 50 -10.7 12.7
23:10 1012 29.88 841 24.83 -1.5 29.3 50 -10.6 13
23:15 1012 29.88 841 24.83 -1.6 29.1 50 -10.7 12.7
23:20 1012 29.88 841 24.83 -1.7 28.9 50 -10.7 12.7
23:25 1012 29.88 841 24.83 -1.8 28.8 51 -10.7 12.8
23:30 1012 29.88 841 24.83 -1.8 28.7 50 -10.9 12.3
23:35 1012 29.88 841 24.83 -1.8 28.8 50 -10.8 12.5
23:40 1012 29.88 841 24.83 -1.7 28.9 49 -11.2 11.8
23:45 1012 29.88 841 24.83 -1.7 29 49 -11 12.2
23:50 1012 29.88 841 24.83 -1.7 29 48 -11.3 11.6
23:55 1012 29.88 841 24.83 -1.7 29 47 -11.5 11.3
24:00 1012 29.88 841 24.83 -1.6 29.2 49 -11 12.2